NCAR-RAP Real-Time Weather Data

Output produced by METARs form (08 May 2021  15:30 UTC)
found at http://weather.rap.ucar.edu/surface/
 
KCLE 081451Z 34013KT 10SM BKN021 OVC030 06/02 A3004 RMK AO2 SLP191 60000 T00610017 53019
KCLE 081351Z 34010KT 10SM BKN016 BKN023 OVC028 06/02 A3001 RMK AO2 RAB38E49 SLP185 P0000 T00560022
KCLE 081251Z 33013KT 10SM BKN020 OVC032 06/01 A3000 RMK AO2 SLP178 T00560011
KCLE 081151Z 34010KT 10SM SCT017 BKN025 OVC036 05/02 A2998 RMK AO2 RAE13B37E48 SLP172 BINOVC P0001 60001 70021 T00500022 10067 20044 53023
KCLE 081113Z 33011KT 10SM SCT016 BKN021 OVC034 05/02 A2997 RMK AO2 RAE13 P0000 T00500022
KCLE 081051Z 33011KT 10SM -RA SCT018 BKN038 OVC045 05/02 A2995 RMK AO2 RAB34 SLP163 P0000 T00500017
KCLE 081006Z 31012KT 10SM FEW022 BKN034 OVC041 06/01 A2994 RMK AO2 T00560011
KCLE 080951Z 30011KT 10SM FEW021 BKN028 OVC034 06/02 A2993 RMK AO2 SLP155 T00560022
KCLE 080943Z 30010G18KT 10SM FEW017 BKN025 OVC035 06/02 A2993 RMK AO2 T00560022
KCLE 080851Z 32012KT 10SM FEW026 OVC035 06/02 A2991 RMK AO2 SLP147 T00610022 51013
KCLE 080819Z 31013KT 10SM FEW014 SCT021 OVC033 06/03 A2991 RMK AO2 T00610028
KCLE 080751Z 31011G18KT 10SM BKN017 BKN024 OVC035 06/03 A2990 RMK AO2 SLP143 T00610033
KCLE 080727Z 31009KT 10SM SCT017 BKN024 OVC031 06/04 A2989 RMK AO2 T00610039
KCLE 080720Z 30009KT 10SM FEW019 SCT024 OVC031 06/04 A2989 RMK AO2 T00610039
KCLE 080651Z 28006KT 10SM FEW020 OVC025 06/04 A2989 RMK AO2 SLP139 T00610039
KCLE 080639Z 27008KT 10SM BKN023 BKN040 OVC080 06/04 A2988 RMK AO2 T00610039
KCLE 080551Z 27005KT 10SM SCT035 BKN080 OVC095 06/04 A2987 RMK AO2 RAE21 SLP135 P0001 60010 T00560039 10083 20056 58003
KCLE 080451Z 27007KT 10SM -RA OVC033 06/03 A2989 RMK AO2 SLP140 P0009 T00560033 401280056
KCLE 080441Z 29009KT 8SM -RA OVC031 06/03 A2989 RMK AO2 P0008 T00610033
KCLE 080351Z 31009KT 10SM -RA BKN018 OVC035 08/04 A2989 RMK AO2 RAB08 TSB06E21B22E27 SLP139 P0000 T00780039
KCLE 080346Z 04004KT 10SM -RA BKN018 BKN023 OVC045 08/04 A2988 RMK AO2 RAB08 TSB06E21B22E27 P0000
KCLE 080333Z 05003KT 10SM -RA SCT022 SCT035 OVC047 08/04 A2987 RMK AO2 RAB08 TSB06E21B22E27 P0000 T00780039
KCLE 080311Z 12003KT 10SM -TSRA BKN050CB OVC085 07/04 A2987 RMK AO2 RAB08 TSB06 OCNL LTGIC NW TS NW MOV SE P0000 T00720039
KCLE 080251Z 14005KT 10SM SCT050 BKN080 BKN090 07/04 A2987 RMK AO2 LTG DSNT W SLP134 T00720039 56009
KCLE 080151Z 17005KT 10SM SCT060 07/04 A2988 RMK AO2 SLP139 T00670039
KCLE 080051Z 14008KT 10SM SCT065 BKN075 OVC100 08/04 A2987 RMK AO2 SLP135 T00780044
KCLE 072351Z 13007KT 10SM FEW085 SCT120 08/05 A2990 RMK AO2 WSHFT 2246 RAE30 SLP144 P0010 60010 T00780050 10128 20072 58003
KCLE 072306Z 26010KT 4SM RA BKN034 OVC041 08/05 A2993 RMK AO2 WSHFT 2246 P0005 T00780050
KCLE 072251Z 26017G27KT 6SM -RA FEW033 OVC041 09/04 A2993 RMK AO2 PK WND 26027/2248 RAB31 PRESRR SLP153 P0000 T00890039
KCLE 072151Z 02004KT 10SM BKN095 13/02 A2989 RMK AO2 SLP141 T01280017
KCLE 072051Z 04006KT 10SM SCT041 12/02 A2991 RMK AO2 SLP145 T01220022 58016
KCLE 071951Z 36004KT 10SM SCT034 12/02 A2992 RMK AO2 SLP152 T01170022
KCLE 071851Z 32007KT 10SM SCT034 SCT041 12/04 A2995 RMK AO2 SLP159 T01170039
KCLE 071751Z 01008KT 10SM BKN024 BKN031 10/04 A2995 RMK AO2 SLP162 T01000039 10106 20067 58002
KCLE 071737Z 35009KT 10SM BKN023 BKN030 10/04 A2996 RMK AO2 T01000039
KCLE 071700Z 34011KT 10SM SCT025 BKN033 10/04 A2996 RMK AO2 T01000044
KCLE 071651Z 35010KT 10SM BKN025 BKN033 10/04 A2996 RMK AO2 SLP164 T01000039
KCLE 071551Z 35007KT 10SM BKN022 BKN030 09/04 A2996 RMK AO2 SLP163 T00890039
KCLE 071451Z 36008KT 10SM BKN016 BKN023 OVC034 08/04 A2996 RMK AO2 SLP164 T00830044 51009
KCLE 071351Z 36008KT 10SM BKN015 BKN022 OVC027 07/04 A2995 RMK AO2 SLP163 T00720044
KCLE 071322Z 02010KT 10SM SCT009 BKN015 OVC026 07/04 A2994 RMK AO2 T00670044
KCLE 071315Z 01012KT 10SM BKN010 OVC014 07/04 A2994 RMK AO2 T00670044
KCLE 071251Z 02008KT 10SM BKN008 OVC015 07/05 A2994 RMK AO2 SLP157 T00670050
KCLE 071151Z 36006KT 10SM OVC014 07/04 A2993 RMK AO2 RAE08B31E40 SLP154 P0000 60009 70026 T00670044 10067 20061 53007 $
KCLE 071129Z 03006KT 9SM OVC013 07/04 A2992 RMK AO2 RAE08 P0000 T00670044 $
KCLE 071051Z 03007KT 10SM -RA SCT006 BKN016 OVC028 07/04 A2991 RMK AO2 SLP147 P0000 T00670044 $
KCLE 071008Z 04006KT 10SM -RA FEW008 BKN019 OVC060 07/04 A2990 RMK AO2 P0000 T00670044 $
KCLE 070955Z 04006KT 10SM -RA FEW006 FEW017 OVC060 06/04 A2990 RMK AO2 P0000 T00610044 $
KCLE 070951Z 05004KT 10SM -RA FEW017 OVC060 06/04 A2990 RMK AO2 SLP144 P0002 T00610044 $
KCLE 070936Z 05007KT 10SM -RA FEW006 SCT017 OVC065 06/04 A2990 RMK AO2 P0002 T00610044 $
KCLE 070913Z 04006KT 7SM -RA FEW006 BKN018 OVC038 06/04 A2991 RMK AO2 P0002 T00610044 $
KCLE 070851Z 02005KT 7SM -RA BKN007 OVC014 06/04 A2991 RMK AO2 SLP147 P0003 60007 T00610044 56010 $
KCLE 070840Z 03006KT 9SM -RA SCT007 OVC014 06/04 A2991 RMK AO2 P0003 T00610044 $
KCLE 070831Z 03007KT 9SM -RA BKN007 OVC016 07/04 A2991 RMK AO2 P0002 T00670044 $
KCLE 070751Z 09005KT 10SM -RA FEW008 BKN016 OVC035 06/04 A2991 RMK AO2 SLP147 P0003 T00610044 $
KCLE 070745Z 07004KT 10SM -RA BKN016 BKN035 OVC060 06/04 A2991 RMK AO2 P0003 $
KCLE 070703Z 11006KT 9SM -RA SCT022 BKN033 OVC040 07/04 A2992 RMK AO2 P0001 T00670039 $
KCLE 070651Z 09005KT 10SM -RA BKN020 OVC027 07/04 A2992 RMK AO2 SLP150 P0001 T00670039 $
KCLE 070525Z 09011KT 10SM -RA BKN029 OVC036 07/04 A2995 RMK AO2 P0000 T00670039 $
KCLE 070451Z 08010KT 10SM -RA OVC040 07/04 A2996 RMK AO2 SLP162 P0002 T00670039 401500017 $
KCLE 070351Z 07008KT 10SM -RA FEW026 OVC037 07/04 A2998 RMK AO2 SLP169 P0007 T00720039 $
KCLE 070304Z 07010KT 4SM -RA FEW028 BKN035 OVC044 07/04 A2999 RMK AO2 P0003 T00720039 $
KCLE 070255Z 04006KT 6SM -RA BKN029 OVC035 07/04 A3000 RMK AO2 P0001 T00720044
KCLE 070251Z 03006KT 6SM -RA FEW029 OVC036 07/04 A3000 RMK AO2 SLP178 P0006 60007 T00720044 50006
KCLE 070151Z 01006KT 8SM -RA BKN034 OVC043 07/04 A3001 RMK AO2 DZE16RAB16 SLP181 P0001 T00720039
KCLE 070051Z 34012KT 10SM -DZ OVC044 09/01 A3000 RMK AO2 DZB48 SLP178 P0000 T00940011
KCLE 062351Z 36008KT 10SM OVC050 11/M01 A2999 RMK AO2 SLP173 T01061006 10150 20106 55006
KCLE 062251Z 02005KT 10SM OVC060 12/M01 A2998 RMK AO2 SLP172 T01171006
KCLE 062151Z 02009KT 10SM BKN060 OVC085 12/02 A2999 RMK AO2 SLP176 T01220017
KCLE 062051Z 03008KT 10SM FEW060 BKN075 BKN150 13/02 A3000 RMK AO2 SLP180 T01280022 56021
KCLE 061951Z 00000KT 10SM BKN060 BKN150 14/02 A3002 RMK AO2 SLP182 T01390022
KCLE 061851Z 03008KT 10SM BKN060 BKN150 14/03 A3004 RMK AO2 SLP192 T01390033
KCLE 061751Z 00000KT 10SM BKN065 BKN150 13/02 A3007 RMK AO2 SLP201 T01330017 10144 20056 58014
KCLE 061651Z VRB05KT 10SM FEW055 SCT070 BKN150 14/02 A3009 RMK AO2 SLP209 T01390022
KCLE 061551Z 00000KT 10SM SCT012 BKN160 13/01 A3010 RMK AO2 SLP212 T01330011